sensor_id;sensor_type;location;lat;lon;timestamp;temperature;humidity
20045;DHT22;10183;47.808;9.476;2023-07-28T00:00:13;13.50;99.90
20045;DHT22;10183;47.808;9.476;2023-07-28T00:02:39;13.50;99.90
20045;DHT22;10183;47.808;9.476;2023-07-28T00:05:05;13.50;99.90
20045;DHT22;10183;47.808;9.476;2023-07-28T00:07:32;13.50;99.90
20045;DHT22;10183;47.808;9.476;2023-07-28T00:10:01;13.50;99.90
20045;DHT22;10183;47.808;9.476;2023-07-28T00:12:27;13.50;99.90
20045;DHT22;10183;47.808;9.476;2023-07-28T00:14:53;13.40;99.90
20045;DHT22;10183;47.808;9.476;2023-07-28T00:17:20;13.40;99.90
20045;DHT22;10183;47.808;9.476;2023-07-28T00:19:46;13.30;99.90
20045;DHT22;10183;47.808;9.476;2023-07-28T00:22:12;13.30;99.90
20045;DHT22;10183;47.808;9.476;2023-07-28T00:24:38;13.30;99.90
20045;DHT22;10183;47.808;9.476;2023-07-28T00:27:05;13.30;99.90
20045;DHT22;10183;47.808;9.476;2023-07-28T00:29:31;13.30;99.90
20045;DHT22;10183;47.808;9.476;2023-07-28T00:31:57;13.40;99.90
20045;DHT22;10183;47.808;9.476;2023-07-28T00:34:23;13.30;99.90
20045;DHT22;10183;47.808;9.476;2023-07-28T00:36:49;13.30;99.90
20045;DHT22;10183;47.808;9.476;2023-07-28T00:39:15;13.30;99.90
20045;DHT22;10183;47.808;9.476;2023-07-28T00:41:41;13.20;99.90
20045;DHT22;10183;47.808;9.476;2023-07-28T00:44:08;13.20;99.90
20045;DHT22;10183;47.808;9.476;2023-07-28T00:46:34;13.30;99.90
20045;DHT22;10183;47.808;9.476;2023-07-28T00:49:00;13.20;99.90
20045;DHT22;10183;47.808;9.476;2023-07-28T00:51:27;13.20;99.90
20045;DHT22;10183;47.808;9.476;2023-07-28T00:53:53;13.10;99.90
20045;DHT22;10183;47.808;9.476;2023-07-28T00:56:21;13.10;99.90
20045;DHT22;10183;47.808;9.476;2023-07-28T00:58:47;13.10;99.90
20045;DHT22;10183;47.808;9.476;2023-07-28T01:01:14;13.10;99.90
20045;DHT22;10183;47.808;9.476;2023-07-28T01:03:40;13.10;99.90
20045;DHT22;10183;47.808;9.476;2023-07-28T01:09:02;13.00;99.90
20045;DHT22;10183;47.808;9.476;2023-07-28T01:11:31;13.10;99.90
20045;DHT22;10183;47.808;9.476;2023-07-28T01:13:58;13.10;99.90
20045;DHT22;10183;47.808;9.476;2023-07-28T01:16:24;13.20;99.90
20045;DHT22;10183;47.808;9.476;2023-07-28T01:18:50;13.20;99.90
20045;DHT22;10183;47.808;9.476;2023-07-28T01:21:27;13.20;99.90
20045;DHT22;10183;47.808;9.476;2023-07-28T01:26:39;13.20;99.90
20045;DHT22;10183;47.808;9.476;2023-07-28T01:29:06;13.30;99.90
20045;DHT22;10183;47.808;9.476;2023-07-28T01:31:33;13.20;99.90
20045;DHT22;10183;47.808;9.476;2023-07-28T01:33:59;13.20;99.90
20045;DHT22;10183;47.808;9.476;2023-07-28T01:36:25;13.20;99.90
20045;DHT22;10183;47.808;9.476;2023-07-28T01:38:51;13.30;99.90
20045;DHT22;10183;47.808;9.476;2023-07-28T01:41:18;13.30;99.90
20045;DHT22;10183;47.808;9.476;2023-07-28T01:43:44;13.20;99.90
20045;DHT22;10183;47.808;9.476;2023-07-28T01:46:10;13.10;99.90
20045;DHT22;10183;47.808;9.476;2023-07-28T01:48:37;13.10;99.90
20045;DHT22;10183;47.808;9.476;2023-07-28T01:51:03;13.20;99.90
20045;DHT22;10183;47.808;9.476;2023-07-28T01:53:29;13.20;99.90
20045;DHT22;10183;47.808;9.476;2023-07-28T01:55:55;13.20;99.90
20045;DHT22;10183;47.808;9.476;2023-07-28T01:58:21;13.20;99.90
20045;DHT22;10183;47.808;9.476;2023-07-28T02:00:47;13.20;99.90
20045;DHT22;10183;47.808;9.476;2023-07-28T02:03:14;13.00;99.90
20045;DHT22;10183;47.808;9.476;2023-07-28T02:05:40;12.80;99.90
20045;DHT22;10183;47.808;9.476;2023-07-28T02:08:06;12.80;99.90
20045;DHT22;10183;47.808;9.476;2023-07-28T02:10:32;12.70;99.90
20045;DHT22;10183;47.808;9.476;2023-07-28T02:12:58;12.70;99.90
20045;DHT22;10183;47.808;9.476;2023-07-28T02:15:24;12.70;99.90
20045;DHT22;10183;47.808;9.476;2023-07-28T02:17:51;12.90;99.90
20045;DHT22;10183;47.808;9.476;2023-07-28T02:20:17;12.90;99.90
20045;DHT22;10183;47.808;9.476;2023-07-28T02:22:43;12.90;99.90
20045;DHT22;10183;47.808;9.476;2023-07-28T02:25:10;12.80;99.90
20045;DHT22;10183;47.808;9.476;2023-07-28T02:27:39;12.90;99.90
20045;DHT22;10183;47.808;9.476;2023-07-28T02:30:06;13.00;99.90
20045;DHT22;10183;47.808;9.476;2023-07-28T02:32:32;12.90;99.90
20045;DHT22;10183;47.808;9.476;2023-07-28T02:34:58;13.00;99.90
20045;DHT22;10183;47.808;9.476;2023-07-28T02:37:25;13.10;99.90
20045;DHT22;10183;47.808;9.476;2023-07-28T02:39:51;13.10;99.90
20045;DHT22;10183;47.808;9.476;2023-07-28T02:42:17;13.10;99.90
20045;DHT22;10183;47.808;9.476;2023-07-28T02:44:43;13.10;99.90
20045;DHT22;10183;47.808;9.476;2023-07-28T02:47:10;13.10;99.90
20045;DHT22;10183;47.808;9.476;2023-07-28T02:49:36;13.20;99.90
20045;DHT22;10183;47.808;9.476;2023-07-28T02:52:02;13.30;99.90
20045;DHT22;10183;47.808;9.476;2023-07-28T02:54:29;13.20;99.90
20045;DHT22;10183;47.808;9.476;2023-07-28T02:56:55;13.20;99.90
20045;DHT22;10183;47.808;9.476;2023-07-28T02:59:21;13.40;99.90
20045;DHT22;10183;47.808;9.476;2023-07-28T03:01:48;13.50;99.90
20045;DHT22;10183;47.808;9.476;2023-07-28T03:04:18;13.50;99.90
20045;DHT22;10183;47.808;9.476;2023-07-28T03:06:46;13.60;99.90
20045;DHT22;10183;47.808;9.476;2023-07-28T03:09:13;13.50;99.90
20045;DHT22;10183;47.808;9.476;2023-07-28T03:11:42;13.40;99.90
20045;DHT22;10183;47.808;9.476;2023-07-28T03:14:09;13.40;99.90
20045;DHT22;10183;47.808;9.476;2023-07-28T03:16:35;13.20;99.90
20045;DHT22;10183;47.808;9.476;2023-07-28T03:19:01;13.10;99.90
20045;DHT22;10183;47.808;9.476;2023-07-28T03:21:30;13.00;99.90
20045;DHT22;10183;47.808;9.476;2023-07-28T03:23:57;13.00;99.90
20045;DHT22;10183;47.808;9.476;2023-07-28T03:26:23;12.90;99.90
20045;DHT22;10183;47.808;9.476;2023-07-28T03:28:49;12.90;99.90
20045;DHT22;10183;47.808;9.476;2023-07-28T03:31:16;13.00;99.90
20045;DHT22;10183;47.808;9.476;2023-07-28T03:33:42;13.20;99.90
20045;DHT22;10183;47.808;9.476;2023-07-28T03:36:08;13.80;99.90
20045;DHT22;10183;47.808;9.476;2023-07-28T03:38:34;13.80;99.90
20045;DHT22;10183;47.808;9.476;2023-07-28T03:41:01;13.80;99.90
20045;DHT22;10183;47.808;9.476;2023-07-28T03:43:27;13.90;99.90
20045;DHT22;10183;47.808;9.476;2023-07-28T03:45:53;14.30;99.90
20045;DHT22;10183;47.808;9.476;2023-07-28T03:48:19;14.40;99.90
20045;DHT22;10183;47.808;9.476;2023-07-28T03:50:46;14.40;99.90
20045;DHT22;10183;47.808;9.476;2023-07-28T03:53:12;14.70;99.90
20045;DHT22;10183;47.808;9.476;2023-07-28T03:55:38;14.80;99.90
20045;DHT22;10183;47.808;9.476;2023-07-28T03:58:04;14.90;99.90
20045;DHT22;10183;47.808;9.476;2023-07-28T04:00:30;15.10;99.90
20045;DHT22;10183;47.808;9.476;2023-07-28T04:02:57;15.30;99.90
20045;DHT22;10183;47.808;9.476;2023-07-28T04:05:24;15.30;99.90
20045;DHT22;10183;47.808;9.476;2023-07-28T04:07:50;15.30;99.90
20045;DHT22;10183;47.808;9.476;2023-07-28T04:10:16;15.40;99.90
20045;DHT22;10183;47.808;9.476;2023-07-28T04:12:43;15.70;99.90
20045;DHT22;10183;47.808;9.476;2023-07-28T04:15:09;15.60;99.90
20045;DHT22;10183;47.808;9.476;2023-07-28T04:17:36;15.60;99.90
20045;DHT22;10183;47.808;9.476;2023-07-28T04:20:02;15.60;99.90
20045;DHT22;10183;47.808;9.476;2023-07-28T04:22:28;15.50;99.90
20045;DHT22;10183;47.808;9.476;2023-07-28T04:24:54;15.60;99.90
20045;DHT22;10183;47.808;9.476;2023-07-28T04:27:20;15.70;99.90
20045;DHT22;10183;47.808;9.476;2023-07-28T04:29:47;15.70;99.90
20045;DHT22;10183;47.808;9.476;2023-07-28T04:32:13;15.80;99.90
20045;DHT22;10183;47.808;9.476;2023-07-28T04:34:39;15.90;99.90
20045;DHT22;10183;47.808;9.476;2023-07-28T04:37:05;15.80;99.90
20045;DHT22;10183;47.808;9.476;2023-07-28T04:39:31;15.80;99.90
20045;DHT22;10183;47.808;9.476;2023-07-28T04:41:58;15.90;99.90
20045;DHT22;10183;47.808;9.476;2023-07-28T04:44:24;15.80;99.90
20045;DHT22;10183;47.808;9.476;2023-07-28T04:46:51;15.70;99.90
20045;DHT22;10183;47.808;9.476;2023-07-28T04:49:17;15.70;99.90
20045;DHT22;10183;47.808;9.476;2023-07-28T04:51:43;15.60;99.90
20045;DHT22;10183;47.808;9.476;2023-07-28T04:54:09;15.40;99.90
20045;DHT22;10183;47.808;9.476;2023-07-28T04:56:35;15.40;99.90
20045;DHT22;10183;47.808;9.476;2023-07-28T04:59:01;15.50;99.90
20045;DHT22;10183;47.808;9.476;2023-07-28T05:01:28;15.60;99.90
20045;DHT22;10183;47.808;9.476;2023-07-28T05:03:54;15.70;99.90
20045;DHT22;10183;47.808;9.476;2023-07-28T05:06:20;15.70;99.90
20045;DHT22;10183;47.808;9.476;2023-07-28T05:08:46;15.70;99.90
20045;DHT22;10183;47.808;9.476;2023-07-28T05:11:12;15.70;99.90
20045;DHT22;10183;47.808;9.476;2023-07-28T05:13:38;15.70;99.90
20045;DHT22;10183;47.808;9.476;2023-07-28T05:16:04;15.60;99.90
20045;DHT22;10183;47.808;9.476;2023-07-28T05:18:31;15.60;99.90
20045;DHT22;10183;47.808;9.476;2023-07-28T05:20:57;15.60;99.90
20045;DHT22;10183;47.808;9.476;2023-07-28T05:23:23;15.60;99.90
20045;DHT22;10183;47.808;9.476;2023-07-28T05:25:49;15.70;99.90
20045;DHT22;10183;47.808;9.476;2023-07-28T05:28:15;15.70;99.90
20045;DHT22;10183;47.808;9.476;2023-07-28T05:30:41;15.70;99.90
20045;DHT22;10183;47.808;9.476;2023-07-28T05:33:08;15.70;99.90
20045;DHT22;10183;47.808;9.476;2023-07-28T05:35:34;15.70;99.90
20045;DHT22;10183;47.808;9.476;2023-07-28T05:38:00;15.70;99.90
20045;DHT22;10183;47.808;9.476;2023-07-28T05:40:26;15.80;99.90
20045;DHT22;10183;47.808;9.476;2023-07-28T05:42:52;15.80;99.90
20045;DHT22;10183;47.808;9.476;2023-07-28T05:45:19;15.90;99.90
20045;DHT22;10183;47.808;9.476;2023-07-28T05:47:45;15.80;99.90
20045;DHT22;10183;47.808;9.476;2023-07-28T05:50:11;16.00;99.90
20045;DHT22;10183;47.808;9.476;2023-07-28T05:52:38;16.00;99.90
20045;DHT22;10183;47.808;9.476;2023-07-28T05:55:04;16.10;99.90
20045;DHT22;10183;47.808;9.476;2023-07-28T05:57:31;16.20;99.90
20045;DHT22;10183;47.808;9.476;2023-07-28T05:59:57;16.30;99.90
20045;DHT22;10183;47.808;9.476;2023-07-28T06:02:23;16.50;99.90
20045;DHT22;10183;47.808;9.476;2023-07-28T06:04:49;16.60;99.90
20045;DHT22;10183;47.808;9.476;2023-07-28T06:07:15;16.70;99.90
20045;DHT22;10183;47.808;9.476;2023-07-28T06:09:41;16.90;99.90
20045;DHT22;10183;47.808;9.476;2023-07-28T06:12:08;16.90;99.90
20045;DHT22;10183;47.808;9.476;2023-07-28T06:14:35;16.90;99.90
20045;DHT22;10183;47.808;9.476;2023-07-28T06:17:01;17.00;99.90
20045;DHT22;10183;47.808;9.476;2023-07-28T06:19:27;17.20;99.90
20045;DHT22;10183;47.808;9.476;2023-07-28T06:21:53;17.30;99.90
20045;DHT22;10183;47.808;9.476;2023-07-28T06:24:20;17.30;99.90
20045;DHT22;10183;47.808;9.476;2023-07-28T06:26:46;17.20;99.90
20045;DHT22;10183;47.808;9.476;2023-07-28T06:29:12;17.10;99.90
20045;DHT22;10183;47.808;9.476;2023-07-28T06:31:38;17.10;99.90
20045;DHT22;10183;47.808;9.476;2023-07-28T06:34:05;17.20;99.90
20045;DHT22;10183;47.808;9.476;2023-07-28T06:36:31;17.40;99.90
20045;DHT22;10183;47.808;9.476;2023-07-28T06:38:57;17.60;99.90
20045;DHT22;10183;47.808;9.476;2023-07-28T06:41:23;17.90;99.90
20045;DHT22;10183;47.808;9.476;2023-07-28T06:43:50;18.10;99.90
20045;DHT22;10183;47.808;9.476;2023-07-28T06:46:16;18.30;99.90
20045;DHT22;10183;47.808;9.476;2023-07-28T06:48:42;18.40;99.90
20045;DHT22;10183;47.808;9.476;2023-07-28T06:51:08;18.60;99.90
20045;DHT22;10183;47.808;9.476;2023-07-28T06:53:34;18.60;99.90
20045;DHT22;10183;47.808;9.476;2023-07-28T06:56:00;18.80;99.90
20045;DHT22;10183;47.808;9.476;2023-07-28T06:58:27;18.90;99.90
20045;DHT22;10183;47.808;9.476;2023-07-28T07:00:53;18.60;99.90
20045;DHT22;10183;47.808;9.476;2023-07-28T07:03:21;18.70;99.90
20045;DHT22;10183;47.808;9.476;2023-07-28T07:05:49;18.70;99.90
20045;DHT22;10183;47.808;9.476;2023-07-28T07:08:16;18.70;99.90
20045;DHT22;10183;47.808;9.476;2023-07-28T07:10:49;18.50;99.90
20045;DHT22;10183;47.808;9.476;2023-07-28T07:13:18;18.70;99.90
20045;DHT22;10183;47.808;9.476;2023-07-28T07:15:45;18.80;99.90
20045;DHT22;10183;47.808;9.476;2023-07-28T07:18:12;18.70;99.90
20045;DHT22;10183;47.808;9.476;2023-07-28T07:20:38;18.80;99.90
20045;DHT22;10183;47.808;9.476;2023-07-28T07:23:05;18.80;99.90
20045;DHT22;10183;47.808;9.476;2023-07-28T07:25:31;18.90;99.90
20045;DHT22;10183;47.808;9.476;2023-07-28T07:27:57;19.20;99.90
20045;DHT22;10183;47.808;9.476;2023-07-28T07:30:23;19.60;99.90
20045;DHT22;10183;47.808;9.476;2023-07-28T07:32:50;19.50;99.90
20045;DHT22;10183;47.808;9.476;2023-07-28T07:35:16;19.90;99.90
20045;DHT22;10183;47.808;9.476;2023-07-28T07:37:42;20.00;99.90
20045;DHT22;10183;47.808;9.476;2023-07-28T07:40:09;20.30;99.90
20045;DHT22;10183;47.808;9.476;2023-07-28T07:42:45;20.50;99.90
20045;DHT22;10183;47.808;9.476;2023-07-28T07:45:12;20.50;99.90
20045;DHT22;10183;47.808;9.476;2023-07-28T07:47:41;20.30;99.90
20045;DHT22;10183;47.808;9.476;2023-07-28T07:50:09;20.30;99.90
20045;DHT22;10183;47.808;9.476;2023-07-28T07:52:36;20.10;99.90
20045;DHT22;10183;47.808;9.476;2023-07-28T07:55:03;20.00;99.90
20045;DHT22;10183;47.808;9.476;2023-07-28T07:57:30;19.80;99.90
20045;DHT22;10183;47.808;9.476;2023-07-28T07:59:57;20.10;99.90
20045;DHT22;10183;47.808;9.476;2023-07-28T08:02:24;20.30;99.90
20045;DHT22;10183;47.808;9.476;2023-07-28T08:04:52;20.20;99.90
20045;DHT22;10183;47.808;9.476;2023-07-28T08:07:20;20.20;99.90
20045;DHT22;10183;47.808;9.476;2023-07-28T08:09:46;20.70;99.90
20045;DHT22;10183;47.808;9.476;2023-07-28T08:12:13;21.00;99.90
20045;DHT22;10183;47.808;9.476;2023-07-28T08:14:40;20.90;99.90
20045;DHT22;10183;47.808;9.476;2023-07-28T08:17:08;21.20;99.90
20045;DHT22;10183;47.808;9.476;2023-07-28T08:19:34;21.40;99.90
20045;DHT22;10183;47.808;9.476;2023-07-28T08:22:01;21.70;99.90
20045;DHT22;10183;47.808;9.476;2023-07-28T08:24:29;21.40;99.90
20045;DHT22;10183;47.808;9.476;2023-07-28T08:26:56;20.90;99.90
20045;DHT22;10183;47.808;9.476;2023-07-28T08:29:22;20.90;99.90
20045;DHT22;10183;47.808;9.476;2023-07-28T08:31:48;20.90;99.90
20045;DHT22;10183;47.808;9.476;2023-07-28T08:34:14;20.80;99.90
20045;DHT22;10183;47.808;9.476;2023-07-28T08:36:41;20.90;99.90
20045;DHT22;10183;47.808;9.476;2023-07-28T08:39:07;20.80;99.90
20045;DHT22;10183;47.808;9.476;2023-07-28T08:41:35;20.90;99.90
20045;DHT22;10183;47.808;9.476;2023-07-28T08:44:02;21.10;99.90
20045;DHT22;10183;47.808;9.476;2023-07-28T08:46:28;21.30;99.90
20045;DHT22;10183;47.808;9.476;2023-07-28T08:48:56;21.20;99.90
20045;DHT22;10183;47.808;9.476;2023-07-28T08:51:22;21.30;99.90
20045;DHT22;10183;47.808;9.476;2023-07-28T08:53:49;21.40;99.90
20045;DHT22;10183;47.808;9.476;2023-07-28T08:56:15;21.50;99.90
20045;DHT22;10183;47.808;9.476;2023-07-28T08:58:41;21.60;99.90
20045;DHT22;10183;47.808;9.476;2023-07-28T09:01:07;21.40;99.90
20045;DHT22;10183;47.808;9.476;2023-07-28T09:03:34;21.10;99.90
20045;DHT22;10183;47.808;9.476;2023-07-28T09:06:03;21.10;99.90
20045;DHT22;10183;47.808;9.476;2023-07-28T09:08:32;20.80;99.90
20045;DHT22;10183;47.808;9.476;2023-07-28T09:11:03;20.90;99.90
20045;DHT22;10183;47.808;9.476;2023-07-28T09:13:39;21.20;99.90
20045;DHT22;10183;47.808;9.476;2023-07-28T09:16:19;21.90;99.90
20045;DHT22;10183;47.808;9.476;2023-07-28T09:18:46;21.70;99.90
20045;DHT22;10183;47.808;9.476;2023-07-28T09:21:21;22.00;99.90
20045;DHT22;10183;47.808;9.476;2023-07-28T09:23:48;22.00;99.90
20045;DHT22;10183;47.808;9.476;2023-07-28T09:26:15;22.00;99.90
20045;DHT22;10183;47.808;9.476;2023-07-28T09:28:41;21.60;99.90
20045;DHT22;10183;47.808;9.476;2023-07-28T09:31:08;21.60;99.90
20045;DHT22;10183;47.808;9.476;2023-07-28T09:33:37;21.90;99.90
20045;DHT22;10183;47.808;9.476;2023-07-28T09:36:15;21.50;99.90
20045;DHT22;10183;47.808;9.476;2023-07-28T09:38:49;21.60;99.90
20045;DHT22;10183;47.808;9.476;2023-07-28T09:41:17;21.40;99.90
20045;DHT22;10183;47.808;9.476;2023-07-28T09:43:44;21.50;99.90
20045;DHT22;10183;47.808;9.476;2023-07-28T09:46:10;21.40;99.90
20045;DHT22;10183;47.808;9.476;2023-07-28T09:48:38;21.50;99.90
20045;DHT22;10183;47.808;9.476;2023-07-28T09:51:28;21.30;99.90
20045;DHT22;10183;47.808;9.476;2023-07-28T09:54:00;21.30;99.90
20045;DHT22;10183;47.808;9.476;2023-07-28T09:56:28;21.20;99.90
20045;DHT22;10183;47.808;9.476;2023-07-28T09:58:59;21.30;99.90
20045;DHT22;10183;47.808;9.476;2023-07-28T10:01:28;21.20;99.90
20045;DHT22;10183;47.808;9.476;2023-07-28T10:03:54;21.10;99.90
20045;DHT22;10183;47.808;9.476;2023-07-28T10:06:21;21.30;99.90
20045;DHT22;10183;47.808;9.476;2023-07-28T10:08:50;21.40;99.90
20045;DHT22;10183;47.808;9.476;2023-07-28T10:11:17;21.80;99.90
20045;DHT22;10183;47.808;9.476;2023-07-28T10:13:44;22.00;99.90
20045;DHT22;10183;47.808;9.476;2023-07-28T10:16:12;22.10;99.90
20045;DHT22;10183;47.808;9.476;2023-07-28T10:18:40;21.70;99.90
20045;DHT22;10183;47.808;9.476;2023-07-28T10:21:15;21.70;99.90
20045;DHT22;10183;47.808;9.476;2023-07-28T10:23:44;21.70;99.90
20045;DHT22;10183;47.808;9.476;2023-07-28T10:26:10;22.00;99.90
20045;DHT22;10183;47.808;9.476;2023-07-28T10:28:38;22.60;99.90
20045;DHT22;10183;47.808;9.476;2023-07-28T10:31:08;22.50;99.90
20045;DHT22;10183;47.808;9.476;2023-07-28T10:33:38;22.60;99.90
20045;DHT22;10183;47.808;9.476;2023-07-28T10:39:11;22.50;99.90
20045;DHT22;10183;47.808;9.476;2023-07-28T10:41:38;22.80;99.90
20045;DHT22;10183;47.808;9.476;2023-07-28T10:44:04;23.50;99.90
20045;DHT22;10183;47.808;9.476;2023-07-28T10:46:34;23.40;99.90
20045;DHT22;10183;47.808;9.476;2023-07-28T10:49:05;24.20;99.90
20045;DHT22;10183;47.808;9.476;2023-07-28T10:51:31;24.20;99.90
20045;DHT22;10183;47.808;9.476;2023-07-28T10:54:00;23.40;99.90
20045;DHT22;10183;47.808;9.476;2023-07-28T10:56:26;23.90;99.90
20045;DHT22;10183;47.808;9.476;2023-07-28T10:59:00;24.40;99.90
20045;DHT22;10183;47.808;9.476;2023-07-28T11:01:40;24.60;99.90
20045;DHT22;10183;47.808;9.476;2023-07-28T11:04:17;24.70;99.90
20045;DHT22;10183;47.808;9.476;2023-07-28T11:06:48;24.60;99.90
20045;DHT22;10183;47.808;9.476;2023-07-28T11:09:17;24.40;99.90
20045;DHT22;10183;47.808;9.476;2023-07-28T11:11:46;24.50;99.90
20045;DHT22;10183;47.808;9.476;2023-07-28T11:14:15;24.50;99.90
20045;DHT22;10183;47.808;9.476;2023-07-28T11:16:41;25.10;99.90
20045;DHT22;10183;47.808;9.476;2023-07-28T11:19:12;25.20;99.90
20045;DHT22;10183;47.808;9.476;2023-07-28T11:21:42;24.70;99.90
20045;DHT22;10183;47.808;9.476;2023-07-28T11:24:10;24.90;99.90
20045;DHT22;10183;47.808;9.476;2023-07-28T11:26:37;24.40;99.90
20045;DHT22;10183;47.808;9.476;2023-07-28T11:29:04;23.70;99.90
20045;DHT22;10183;47.808;9.476;2023-07-28T11:31:32;23.90;99.90
20045;DHT22;10183;47.808;9.476;2023-07-28T11:33:59;23.60;99.90
20045;DHT22;10183;47.808;9.476;2023-07-28T11:36:27;23.80;99.90
20045;DHT22;10183;47.808;9.476;2023-07-28T11:38:57;23.90;99.90
20045;DHT22;10183;47.808;9.476;2023-07-28T11:41:25;23.40;99.90
20045;DHT22;10183;47.808;9.476;2023-07-28T11:43:53;23.40;99.90
20045;DHT22;10183;47.808;9.476;2023-07-28T11:46:36;23.50;99.90
20045;DHT22;10183;47.808;9.476;2023-07-28T11:49:17;23.70;99.90
20045;DHT22;10183;47.808;9.476;2023-07-28T11:51:50;23.80;99.90
20045;DHT22;10183;47.808;9.476;2023-07-28T11:54:21;23.70;99.90
20045;DHT22;10183;47.808;9.476;2023-07-28T11:56:49;23.50;99.90
20045;DHT22;10183;47.808;9.476;2023-07-28T11:59:17;23.40;99.90
20045;DHT22;10183;47.808;9.476;2023-07-28T12:01:56;23.10;99.90
20045;DHT22;10183;47.808;9.476;2023-07-28T12:07:14;23.10;99.90
20045;DHT22;10183;47.808;9.476;2023-07-28T12:12:46;24.00;99.90
20045;DHT22;10183;47.808;9.476;2023-07-28T12:15:29;24.10;99.90
20045;DHT22;10183;47.808;9.476;2023-07-28T12:18:08;24.10;99.90
20045;DHT22;10183;47.808;9.476;2023-07-28T12:20:55;24.10;99.90
20045;DHT22;10183;47.808;9.476;2023-07-28T12:23:22;23.70;99.90
20045;DHT22;10183;47.808;9.476;2023-07-28T12:25:49;23.80;99.90
20045;DHT22;10183;47.808;9.476;2023-07-28T12:28:21;23.90;99.90
20045;DHT22;10183;47.808;9.476;2023-07-28T12:30:47;23.90;99.90
20045;DHT22;10183;47.808;9.476;2023-07-28T12:33:18;24.20;99.90
20045;DHT22;10183;47.808;9.476;2023-07-28T12:35:44;24.40;99.90
20045;DHT22;10183;47.808;9.476;2023-07-28T12:38:10;24.10;99.90
20045;DHT22;10183;47.808;9.476;2023-07-28T12:40:36;24.00;99.90
20045;DHT22;10183;47.808;9.476;2023-07-28T12:43:03;23.90;99.90
20045;DHT22;10183;47.808;9.476;2023-07-28T12:45:30;24.10;99.90
20045;DHT22;10183;47.808;9.476;2023-07-28T12:47:56;24.50;99.90
20045;DHT22;10183;47.808;9.476;2023-07-28T12:50:23;24.30;99.90
20045;DHT22;10183;47.808;9.476;2023-07-28T12:52:50;24.70;99.90
20045;DHT22;10183;47.808;9.476;2023-07-28T12:55:17;25.20;99.90
20045;DHT22;10183;47.808;9.476;2023-07-28T12:57:44;25.50;99.90
20045;DHT22;10183;47.808;9.476;2023-07-28T13:00:11;25.90;99.90
20045;DHT22;10183;47.808;9.476;2023-07-28T13:02:45;25.80;99.90
20045;DHT22;10183;47.808;9.476;2023-07-28T13:05:13;25.40;99.90
20045;DHT22;10183;47.808;9.476;2023-07-28T13:07:40;25.00;99.90
20045;DHT22;10183;47.808;9.476;2023-07-28T13:10:08;24.20;99.90
20045;DHT22;10183;47.808;9.476;2023-07-28T13:12:35;23.90;99.90
20045;DHT22;10183;47.808;9.476;2023-07-28T13:15:02;23.90;99.90
20045;DHT22;10183;47.808;9.476;2023-07-28T13:17:28;23.80;99.90
20045;DHT22;10183;47.808;9.476;2023-07-28T13:19:54;23.70;99.90
20045;DHT22;10183;47.808;9.476;2023-07-28T13:22:23;23.70;99.90
20045;DHT22;10183;47.808;9.476;2023-07-28T13:24:50;23.50;99.90
20045;DHT22;10183;47.808;9.476;2023-07-28T13:27:16;23.60;99.90
20045;DHT22;10183;47.808;9.476;2023-07-28T13:29:42;23.50;99.90
20045;DHT22;10183;47.808;9.476;2023-07-28T13:32:23;23.40;99.90
20045;DHT22;10183;47.808;9.476;2023-07-28T13:34:49;23.70;99.90
20045;DHT22;10183;47.808;9.476;2023-07-28T13:37:15;23.90;99.90
20045;DHT22;10183;47.808;9.476;2023-07-28T13:39:42;24.20;99.90
20045;DHT22;10183;47.808;9.476;2023-07-28T13:42:09;26.20;99.90
20045;DHT22;10183;47.808;9.476;2023-07-28T13:44:36;28.70;99.90
20045;DHT22;10183;47.808;9.476;2023-07-28T13:47:03;29.10;99.90
20045;DHT22;10183;47.808;9.476;2023-07-28T13:49:31;29.10;99.90
20045;DHT22;10183;47.808;9.476;2023-07-28T13:52:02;28.70;99.90
20045;DHT22;10183;47.808;9.476;2023-07-28T13:54:28;28.50;99.90
20045;DHT22;10183;47.808;9.476;2023-07-28T13:56:54;30.40;99.90
20045;DHT22;10183;47.808;9.476;2023-07-28T13:59:21;30.10;99.90
20045;DHT22;10183;47.808;9.476;2023-07-28T14:01:48;28.00;99.90
20045;DHT22;10183;47.808;9.476;2023-07-28T14:04:15;27.50;99.90
20045;DHT22;10183;47.808;9.476;2023-07-28T14:06:42;27.90;99.90
20045;DHT22;10183;47.808;9.476;2023-07-28T14:09:08;27.00;99.90
20045;DHT22;10183;47.808;9.476;2023-07-28T14:11:35;27.70;99.90
20045;DHT22;10183;47.808;9.476;2023-07-28T14:14:01;28.10;99.90
20045;DHT22;10183;47.808;9.476;2023-07-28T14:16:27;30.30;99.90
20045;DHT22;10183;47.808;9.476;2023-07-28T14:18:53;29.00;98.70
20045;DHT22;10183;47.808;9.476;2023-07-28T14:21:20;29.30;99.90
20045;DHT22;10183;47.808;9.476;2023-07-28T14:23:46;27.10;99.90
20045;DHT22;10183;47.808;9.476;2023-07-28T14:26:12;26.00;99.90
20045;DHT22;10183;47.808;9.476;2023-07-28T14:28:38;26.70;99.90
20045;DHT22;10183;47.808;9.476;2023-07-28T14:31:05;28.40;99.90
20045;DHT22;10183;47.808;9.476;2023-07-28T14:33:31;28.90;99.10
20045;DHT22;10183;47.808;9.476;2023-07-28T14:35:57;29.80;99.90
20045;DHT22;10183;47.808;9.476;2023-07-28T14:38:23;29.50;99.90
20045;DHT22;10183;47.808;9.476;2023-07-28T14:40:49;29.20;96.40
20045;DHT22;10183;47.808;9.476;2023-07-28T14:43:18;29.10;98.20
20045;DHT22;10183;47.808;9.476;2023-07-28T14:45:44;28.00;99.90
20045;DHT22;10183;47.808;9.476;2023-07-28T14:48:10;27.90;99.90
20045;DHT22;10183;47.808;9.476;2023-07-28T14:50:37;27.60;99.90
20045;DHT22;10183;47.808;9.476;2023-07-28T14:53:30;27.50;99.90
20045;DHT22;10183;47.808;9.476;2023-07-28T14:55:56;27.60;99.90
20045;DHT22;10183;47.808;9.476;2023-07-28T14:58:23;26.90;99.90
20045;DHT22;10183;47.808;9.476;2023-07-28T15:00:49;26.90;99.90
20045;DHT22;10183;47.808;9.476;2023-07-28T15:03:15;26.90;99.90
20045;DHT22;10183;47.808;9.476;2023-07-28T15:05:42;26.70;99.90
20045;DHT22;10183;47.808;9.476;2023-07-28T15:08:08;25.40;99.90
20045;DHT22;10183;47.808;9.476;2023-07-28T15:10:34;24.40;99.90
20045;DHT22;10183;47.808;9.476;2023-07-28T15:13:00;24.20;99.90
20045;DHT22;10183;47.808;9.476;2023-07-28T15:15:26;23.80;99.90
20045;DHT22;10183;47.808;9.476;2023-07-28T15:17:52;23.60;99.90
20045;DHT22;10183;47.808;9.476;2023-07-28T15:20:18;23.40;99.90
20045;DHT22;10183;47.808;9.476;2023-07-28T15:22:47;23.20;99.90
20045;DHT22;10183;47.808;9.476;2023-07-28T15:25:13;23.10;99.90
20045;DHT22;10183;47.808;9.476;2023-07-28T15:27:43;22.90;99.90
20045;DHT22;10183;47.808;9.476;2023-07-28T15:30:10;22.80;99.90
20045;DHT22;10183;47.808;9.476;2023-07-28T15:32:37;22.60;99.90
20045;DHT22;10183;47.808;9.476;2023-07-28T15:35:03;22.60;99.90
20045;DHT22;10183;47.808;9.476;2023-07-28T15:37:29;22.50;99.90
20045;DHT22;10183;47.808;9.476;2023-07-28T15:39:56;22.50;99.90
20045;DHT22;10183;47.808;9.476;2023-07-28T15:42:22;22.40;99.90
20045;DHT22;10183;47.808;9.476;2023-07-28T15:44:48;22.30;99.90